Time;durP1;ratioP1;P1;durP2;ratioP2;P2;SDS_P1;SDS_P2;PMS_P1;PMS_P2;Temp;Humidity;BMP_temperature;BMP_pressure;BME280_temperature;BME280_humidity;BME280_pressure;Samples;Min_cycle;Max_cycle;Signal;HPM_P1;HPM_P2
2022/11/04 00:02:02;;;;;;;2.10;1.25;;;11.20;99.90;;;-144.05;75.37;125687.94;5032617;28;20029;-78
2022/11/04 00:04:29;;;;;;;4.15;1.25;;;11.10;99.90;;;-144.05;74.55;125687.94;5032645;28;20087;-78
2022/11/04 00:06:56;;;;;;;2.60;1.20;;;11.00;99.90;;;-144.05;74.60;125687.94;5033085;28;20346;-77
2022/11/04 00:09:29;;;;;;;1.95;1.40;;;10.90;99.90;;;-144.05;74.19;125687.94;5032789;28;20041;-77
2022/11/04 00:14:41;;;;;;;1.30;0.82;;;10.90;99.90;;;-144.05;74.07;125687.94;5032873;28;20048;-77
2022/11/04 00:17:21;;;;;;;1.48;0.70;;;10.80;99.90;;;-144.05;73.87;125687.94;5033514;28;20028;-76
2022/11/04 00:33:56;;;;;;;1.73;0.93;;;10.60;99.90;;;-144.05;73.89;125687.94;5033872;28;20088;-78
2022/11/04 00:36:24;;;;;;;7.07;1.08;;;10.60;99.90;;;-144.05;74.16;125687.94;5048026;28;20037;-78
2022/11/04 00:38:50;;;;;;;1.30;1.02;;;10.50;99.90;;;-144.05;73.99;125687.94;5047577;28;20107;-77
2022/11/04 00:41:25;;;;;;;1.88;1.00;;;10.50;99.90;;;-144.05;74.07;125687.94;5032058;28;20392;-76
2022/11/04 00:44:03;;;;;;;1.60;1.00;;;10.50;99.90;;;-144.05;74.05;125687.94;5033061;28;20025;-77
2022/11/04 00:46:32;;;;;;;1.45;0.88;;;10.50;99.90;;;-144.05;73.67;125687.94;5030981;28;20553;-77
2022/11/04 00:48:59;;;;;;;1.25;0.70;;;10.50;99.90;;;-144.05;73.18;125687.94;5030861;28;20071;-77
2022/11/04 00:51:25;;;;;;;1.65;0.85;;;10.40;99.90;;;-144.05;73.30;125687.94;5032260;28;20544;-77
2022/11/04 00:53:52;;;;;;;2.05;0.93;;;10.50;99.90;;;-144.05;73.04;125687.94;5031971;28;20041;-76
2022/11/04 00:56:19;;;;;;;3.22;0.90;;;10.40;99.90;;;-144.05;73.00;125687.94;5032068;28;20045;-76
2022/11/04 00:58:44;;;;;;;3.00;1.20;;;10.30;99.90;;;-144.05;73.45;125687.94;5032212;28;20025;-76
2022/11/04 01:01:17;;;;;;;2.13;1.10;;;10.30;99.90;;;-144.05;73.45;125687.94;5047363;28;20504;-76
2022/11/04 01:03:49;;;;;;;2.53;0.90;;;10.30;99.90;;;-144.05;73.28;125687.94;5032454;28;20106;-75
2022/11/04 01:06:17;;;;;;;2.28;1.40;;;10.30;99.90;;;-144.05;73.07;125687.94;5031995;28;20099;-77
2022/11/04 01:08:44;;;;;;;4.72;1.63;;;10.30;99.90;;;-144.05;72.98;125687.94;5031888;28;20037;-76
2022/11/04 01:11:11;;;;;;;1.45;1.30;;;10.30;99.90;;;-144.05;73.42;125687.94;5030613;28;20029;-78
2022/11/04 01:13:38;;;;;;;1.58;1.33;;;10.20;99.90;;;-144.05;72.74;125687.94;5031859;28;20032;-77
2022/11/04 01:16:10;;;;;;;2.28;1.02;;;10.30;99.90;;;-144.05;73.20;125687.94;5031650;28;20129;-75
2022/11/04 01:18:36;;;;;;;1.60;1.30;;;10.30;99.90;;;-144.05;72.73;125687.94;5032061;28;20471;-76
2022/11/04 01:21:06;;;;;;;2.65;1.35;;;10.30;99.90;;;-144.05;72.71;125687.94;5032088;28;20108;-77
2022/11/04 01:23:34;;;;;;;1.45;0.82;;;10.30;99.90;;;-144.05;72.51;125687.94;5031702;28;20400;-77
2022/11/04 01:26:00;;;;;;;2.35;1.30;;;10.40;99.90;;;-144.05;72.38;125687.94;5047429;28;20043;-75
2022/11/04 01:28:26;;;;;;;4.43;1.63;;;10.40;99.90;;;-144.05;71.67;125687.94;5032058;28;20049;-76
2022/11/04 01:30:52;;;;;;;4.55;1.30;;;10.40;99.90;;;-144.05;72.04;125687.94;5031725;28;20405;-76
2022/11/04 01:33:18;;;;;;;3.33;1.40;;;10.40;99.90;;;-144.05;72.29;125687.94;5047192;28;20496;-75
2022/11/04 01:35:43;;;;;;;2.67;1.30;;;10.40;99.90;;;-144.05;71.94;125687.94;5031802;28;20061;-76
2022/11/04 01:38:09;;;;;;;1.58;1.38;;;10.40;99.90;;;-144.05;71.43;125687.94;5034516;28;20493;-77
2022/11/04 01:40:39;;;;;;;2.28;1.38;;;10.40;99.90;;;-144.05;72.04;125687.94;5035661;28;20030;-77
2022/11/04 01:43:20;;;;;;;3.83;1.45;;;10.40;99.90;;;-144.05;72.45;125687.94;5034311;28;20395;-77
2022/11/04 01:46:24;;;;;;;1.98;1.70;;;10.30;99.90;;;-144.05;73.16;125687.94;5035673;28;20380;-76
2022/11/04 01:48:54;;;;;;;3.67;1.83;;;10.30;99.90;;;-144.05;73.13;125687.94;5050843;28;20057;-77
2022/11/04 01:51:21;;;;;;;2.83;1.92;;;10.30;99.90;;;-144.05;73.53;125687.94;5035742;28;20022;-76
2022/11/04 01:53:54;;;;;;;2.05;1.63;;;10.30;99.90;;;-144.05;73.00;125687.94;5034097;28;20432;-77
2022/11/04 01:56:20;;;;;;;17.75;2.20;;;10.30;99.90;;;-144.05;73.38;125687.94;5035519;28;20084;-80
2022/11/04 01:58:57;;;;;;;2.35;1.90;;;10.30;99.90;;;-144.05;73.81;125687.94;5050846;28;20033;-79
2022/11/04 02:01:23;;;;;;;4.43;2.03;;;10.40;99.90;;;-144.05;73.42;125687.94;5035812;28;20505;-76
2022/11/04 02:04:24;;;;;;;4.13;2.63;;;10.40;99.90;;;-144.05;73.92;125687.94;5035255;28;20311;-77
2022/11/04 02:06:51;;;;;;;3.33;2.08;;;10.40;99.90;;;-144.05;73.54;125687.94;5035124;28;20500;-75
2022/11/04 02:09:20;;;;;;;3.92;2.53;;;10.40;99.90;;;-144.05;73.44;125687.94;5034991;28;20511;-76
2022/11/04 02:14:34;;;;;;;4.97;2.10;;;10.50;99.90;;;-144.05;73.70;125687.94;5035022;28;20059;-75
2022/11/04 02:17:18;;;;;;;4.78;2.20;;;10.50;99.90;;;-144.05;73.63;125687.94;5033240;28;20095;-75
2022/11/04 02:20:18;;;;;;;4.63;2.45;;;10.50;99.90;;;-144.05;73.22;125687.94;5050557;28;20060;-77
2022/11/04 02:23:16;;;;;;;3.05;2.38;;;10.50;99.90;;;-144.05;73.21;125687.94;5034547;28;20147;-75
2022/11/04 02:26:39;;;;;;;4.03;1.95;;;10.40;99.90;;;-144.05;73.77;125687.94;5035323;28;20091;-77
2022/11/04 02:29:58;;;;;;;3.83;2.05;;;10.40;99.90;;;-144.05;73.57;125687.94;5041392;28;20033;-77
2022/11/04 02:33:08;;;;;;;4.20;2.17;;;10.40;99.90;;;-144.05;73.67;125687.94;5041871;28;20056;-78
2022/11/04 02:36:19;;;;;;;4.18;2.15;;;10.30;99.90;;;-144.05;73.23;125687.94;5034723;28;20021;-76
2022/11/04 02:39:03;;;;;;;6.18;2.42;;;10.30;99.90;;;-144.05;73.69;125687.94;5034093;28;20021;-77
2022/11/04 02:42:01;;;;;;;5.28;2.80;;;10.20;99.90;;;-144.05;74.10;125687.94;5034092;28;20460;-76
2022/11/04 02:44:34;;;;;;;7.90;2.33;;;10.10;99.90;;;-144.05;73.91;125687.94;5033084;28;20033;-76
2022/11/04 02:47:21;;;;;;;4.82;2.67;;;10.00;99.90;;;-144.05;74.74;125687.94;5034436;28;20029;-76
2022/11/04 02:50:18;;;;;;;6.00;2.45;;;9.90;99.90;;;-144.05;74.07;125687.94;5048831;28;20497;-76
2022/11/04 02:53:02;;;;;;;3.08;2.33;;;10.00;99.90;;;-144.05;74.84;125687.94;5034212;28;20493;-77
2022/11/04 02:55:57;;;;;;;6.32;2.53;;;9.90;99.90;;;-144.05;74.59;125687.94;5034257;28;20025;-77
2022/11/04 02:58:34;;;;;;;6.93;2.55;;;9.90;99.90;;;-144.05;74.95;125687.94;5034362;28;20385;-75
2022/11/04 03:01:06;;;;;;;5.47;2.40;;;9.90;99.90;;;-144.05;74.48;125687.94;5033555;28;20481;-77
2022/11/04 03:03:45;;;;;;;6.25;2.60;;;9.80;99.90;;;-144.05;74.76;125687.94;5033955;28;20048;-78
2022/11/04 03:06:21;;;;;;;6.22;2.10;;;9.80;99.90;;;-144.05;75.00;125687.94;5049273;28;20086;-77
2022/11/04 03:08:51;;;;;;;7.38;2.47;;;9.80;99.90;;;-144.05;75.70;125687.94;5033668;28;20026;-77
2022/11/04 03:13:56;;;;;;;6.85;2.88;;;9.80;99.90;;;-144.05;74.84;125687.94;5013686;28;20054;-78
2022/11/04 03:16:40;;;;;;;4.80;2.75;;;9.80;99.90;;;-144.05;75.53;125687.94;4997265;28;20038;-80
2022/11/04 03:19:52;;;;;;;7.75;3.03;;;9.70;99.90;;;-144.05;75.01;125687.94;5014799;28;20084;-80
2022/11/04 03:22:28;;;;;;;7.13;3.05;;;9.70;99.90;;;-144.05;74.80;125687.94;4993690;28;20073;-80
2022/11/04 03:24:55;;;;;;;6.80;3.30;;;9.80;99.90;;;-144.05;74.93;125687.94;4977029;28;20027;-81
2022/11/04 03:28:15;;;;;;;4.40;2.55;;;9.80;99.90;;;-144.05;74.16;125687.94;4994790;28;20073;-80
2022/11/04 03:30:52;;;;;;;4.97;3.17;;;9.80;99.90;;;-144.05;74.74;125687.94;4977186;28;20068;-80
2022/11/04 03:33:37;;;;;;;8.77;3.25;;;9.70;99.90;;;-144.05;74.54;125687.94;4995079;28;20026;-80
2022/11/04 03:36:04;;;;;;;7.75;2.63;;;9.70;99.90;;;-144.05;74.22;125687.94;4994897;28;20062;-80
2022/11/04 03:38:30;;;;;;;6.20;2.47;;;9.70;99.90;;;-144.05;74.44;125687.94;4977290;28;20497;-81
2022/11/04 03:41:02;;;;;;;8.65;2.58;;;9.70;99.90;;;-144.05;74.60;125687.94;4976933;28;20023;-80
2022/11/04 03:43:31;;;;;;;10.48;2.33;;;9.70;99.90;;;-144.05;74.90;125687.94;4977206;28;20117;-82
2022/11/04 03:45:57;;;;;;;2.80;1.92;;;9.70;99.90;;;-144.05;74.46;125687.94;4993321;28;20125;-80
2022/11/04 03:48:24;;;;;;;4.82;2.03;;;9.70;99.90;;;-144.05;74.46;125687.94;4976788;28;20057;-82
2022/11/04 03:50:50;;;;;;;7.38;2.03;;;9.70;99.90;;;-144.05;74.19;125687.94;4976428;28;20038;-80
2022/11/04 03:53:21;;;;;;;4.43;1.88;;;9.60;99.90;;;-144.05;74.09;125687.94;4976807;28;20041;-80
2022/11/04 03:56:17;;;;;;;5.78;1.77;;;9.60;99.90;;;-144.05;74.68;125687.94;4993874;28;20430;-81
2022/11/04 03:58:49;;;;;;;4.80;1.65;;;9.60;99.90;;;-144.05;74.34;125687.94;4977030;28;20041;-81
2022/11/04 04:01:44;;;;;;;5.35;2.38;;;9.60;99.90;;;-144.05;73.13;125687.94;4975985;28;20027;-79
2022/11/04 04:04:35;;;;;;;9.50;1.85;;;9.60;99.90;;;-144.05;73.67;125687.94;4976489;28;20517;-80
2022/11/04 04:07:13;;;;;;;4.93;1.60;;;9.50;99.90;;;-144.05;74.06;125687.94;4976788;28;20033;-81
2022/11/04 04:09:54;;;;;;;10.43;1.73;;;9.50;99.90;;;-144.05;73.89;125687.94;4976575;28;20073;-82
2022/11/04 04:12:36;;;;;;;8.60;1.75;;;9.50;99.90;;;-144.05;73.93;125687.94;4976404;28;20044;-80
2022/11/04 04:15:20;;;;;;;5.70;2.10;;;9.40;99.90;;;-144.05;74.05;125687.94;4976589;28;20038;-81
2022/11/04 04:17:57;;;;;;;6.82;1.85;;;9.40;99.90;;;-144.05;74.85;125687.94;4976767;28;20030;-79
2022/11/04 04:20:30;;;;;;;9.65;2.20;;;9.30;99.90;;;-144.05;74.49;125687.94;4994117;28;20491;-80
2022/11/04 04:28:44;;;;;;;12.05;2.10;;;9.20;99.90;;;-144.05;74.58;125687.94;4994736;28;20413;-80
2022/11/04 04:31:48;;;;;;;9.20;1.70;;;9.20;99.90;;;-144.05;74.48;125687.94;4976560;28;20140;-80
2022/11/04 04:34:05;;;;;;;5.30;1.73;;;9.30;99.90;;;-144.05;73.72;125687.94;4994254;28;20038;-80
2022/11/04 04:36:45;;;;;;;7.45;1.83;;;9.20;99.90;;;-144.05;74.09;125687.94;4994819;28;20050;-80
2022/11/04 04:44:58;;;;;;;6.32;2.75;;;9.10;99.90;;;-144.05;74.51;125687.94;4994969;28;20139;-81
2022/11/04 04:47:33;;;;;;;5.68;1.52;;;9.10;99.90;;;-144.05;74.64;125687.94;4995240;28;20038;-79
2022/11/04 04:50:01;;;;;;;7.40;2.42;;;9.10;99.90;;;-144.05;75.11;125687.94;4995734;28;20508;-80
2022/11/04 04:52:39;;;;;;;3.55;1.40;;;9.00;99.90;;;-144.05;75.17;125687.94;4978102;28;20041;-83
2022/11/04 04:55:07;;;;;;;9.52;1.70;;;9.10;99.90;;;-144.05;75.08;125687.94;4978948;28;20050;-81
2022/11/04 04:57:33;;;;;;;8.05;1.77;;;9.00;99.90;;;-144.05;74.96;125687.94;4997337;28;20410;-82
2022/11/04 04:59:59;;;;;;;4.72;1.50;;;9.00;99.90;;;-144.05;74.78;125687.94;4998650;28;20470;-86
2022/11/04 05:02:25;;;;;;;7.68;2.42;;;9.00;99.90;;;-144.05;75.13;125687.94;4995968;28;20049;-83
2022/11/04 05:04:51;;;;;;;12.10;2.00;;;9.00;99.90;;;-144.05;75.26;125687.94;4978537;28;20121;-80
2022/11/04 05:07:17;;;;;;;5.80;2.10;;;9.00;99.90;;;-144.05;75.24;125687.94;4978980;28;20062;-81
2022/11/04 05:09:43;;;;;;;6.63;2.35;;;9.00;99.90;;;-144.05;75.82;125687.94;4979913;28;20030;-82
2022/11/04 05:12:09;;;;;;;6.70;1.95;;;9.00;99.90;;;-144.05;75.49;125687.94;4981619;28;20041;-82
2022/11/04 05:14:35;;;;;;;6.80;2.08;;;9.00;99.90;;;-144.05;75.59;125687.94;5000145;28;20058;-84
2022/11/04 05:17:01;;;;;;;9.30;2.35;;;8.90;99.90;;;-144.05;75.55;125687.94;5000565;28;20442;-81
2022/11/04 05:19:27;;;;;;;9.57;1.70;;;8.90;99.90;;;-144.05;75.51;125687.94;4981582;28;20316;-82
2022/11/04 05:21:53;;;;;;;7.35;1.98;;;8.90;99.90;;;-144.05;75.68;125687.94;5000089;28;20018;-82
2022/11/04 05:24:19;;;;;;;4.88;1.77;;;8.90;99.90;;;-144.05;75.31;125687.94;4982201;28;20026;-81
2022/11/04 05:26:44;;;;;;;6.13;1.58;;;8.90;99.90;;;-144.05;75.08;125687.94;5000777;28;20031;-81
2022/11/04 05:29:11;;;;;;;5.22;1.90;;;8.80;99.90;;;-144.05;75.43;125687.94;5000869;28;20393;-83
2022/11/04 05:31:37;;;;;;;9.27;2.28;;;8.80;99.90;;;-144.05;75.84;125687.94;5000643;28;20038;-83
2022/11/04 05:34:04;;;;;;;9.70;1.75;;;8.80;99.90;;;-144.05;75.32;125687.94;5013637;28;20045;-85
2022/11/04 05:36:32;;;;;;;8.73;1.77;;;8.90;99.90;;;-144.05;75.47;125687.94;5000125;28;20037;-81
2022/11/04 05:38:58;;;;;;;5.50;1.48;;;8.80;99.90;;;-144.05;75.23;125687.94;5018163;28;20069;-81
2022/11/04 05:41:27;;;;;;;11.70;1.70;;;8.70;99.90;;;-144.05;75.28;125687.94;4987353;28;20125;-84
2022/11/04 05:44:01;;;;;;;8.23;1.67;;;8.70;99.90;;;-144.05;75.20;125687.94;4985355;28;20031;-86
2022/11/04 05:46:28;;;;;;;4.15;1.20;;;8.70;99.90;;;-144.05;74.92;125687.94;4988727;28;20026;-82
2022/11/04 05:48:55;;;;;;;5.72;1.67;;;8.70;99.90;;;-144.05;74.64;125687.94;4989039;28;20026;-84
2022/11/04 05:51:27;;;;;;;5.45;1.95;;;8.60;99.90;;;-144.05;75.55;125687.94;4988365;28;20235;-83
2022/11/04 05:53:53;;;;;;;8.80;1.75;;;8.60;99.90;;;-144.05;75.77;125687.94;4989127;28;20425;-83
2022/11/04 05:56:20;;;;;;;7.38;1.45;;;8.60;99.90;;;-144.05;75.52;125687.94;4990526;28;20027;-84
2022/11/04 05:58:45;;;;;;;8.52;2.10;;;8.60;99.90;;;-144.05;75.00;125687.94;5013343;28;20026;-82
2022/11/04 06:01:11;;;;;;;8.02;1.90;;;8.60;99.90;;;-144.05;75.43;125687.94;4993567;28;20045;-85
2022/11/04 06:03:37;;;;;;;12.77;2.22;;;8.70;99.90;;;-144.05;74.87;125687.94;4991772;28;20038;-83
2022/11/04 06:06:03;;;;;;;5.15;1.95;;;8.80;99.90;;;-144.05;74.41;125687.94;5007870;28;20026;-85
2022/11/04 06:08:30;;;;;;;8.68;2.05;;;8.70;99.90;;;-144.05;74.15;125687.94;4988514;28;20041;-83
2022/11/04 06:10:56;;;;;;;7.35;1.67;;;8.70;99.90;;;-144.05;73.93;125687.94;4989944;28;20089;-82
2022/11/04 06:13:22;;;;;;;5.85;1.67;;;8.70;99.90;;;-144.05;74.14;125687.94;4990540;28;20030;-83
2022/11/04 06:15:48;;;;;;;8.43;1.67;;;8.70;99.90;;;-144.05;73.87;125687.94;5008834;28;20034;-82
2022/11/04 06:18:13;;;;;;;7.45;1.98;;;8.70;99.90;;;-144.05;73.79;125687.94;4990740;28;20065;-83
2022/11/04 06:20:39;;;;;;;6.18;1.85;;;8.70;99.90;;;-144.05;73.99;125687.94;4990821;28;20033;-85
2022/11/04 06:23:05;;;;;;;5.25;1.60;;;8.70;99.90;;;-144.05;73.99;125687.94;5008440;28;20029;-85
2022/11/04 06:25:31;;;;;;;12.85;2.10;;;8.70;99.90;;;-144.05;73.94;125687.94;5009172;28;20057;-84
2022/11/04 06:27:57;;;;;;;6.15;1.90;;;8.70;99.90;;;-144.05;73.89;125687.94;4990219;28;20030;-85
2022/11/04 06:30:23;;;;;;;6.13;1.73;;;8.70;99.90;;;-144.05;73.50;125687.94;4991024;28;20081;-83
2022/11/04 06:32:48;;;;;;;10.45;1.88;;;8.80;99.90;;;-144.05;73.41;125687.94;5008205;28;20121;-84
2022/11/04 06:35:14;;;;;;;10.27;1.80;;;8.80;99.90;;;-144.05;73.49;125687.94;4990771;28;20084;-84
2022/11/04 06:37:40;;;;;;;12.15;2.17;;;8.70;99.90;;;-144.05;74.00;125687.94;4990594;28;20038;-83
2022/11/04 06:40:07;;;;;;;7.95;1.52;;;8.70;99.90;;;-144.05;73.75;125687.94;4990261;28;20027;-85
2022/11/04 06:42:33;;;;;;;3.78;1.63;;;8.70;99.90;;;-144.05;73.74;125687.94;4991238;28;20312;-83
2022/11/04 06:44:59;;;;;;;6.72;1.83;;;8.80;99.90;;;-144.05;73.42;125687.94;4991521;28;20023;-84
2022/11/04 06:47:25;;;;;;;11.60;2.17;;;8.80;99.90;;;-144.05;73.62;125687.94;4991806;28;20037;-82
2022/11/04 06:49:50;;;;;;;9.18;2.35;;;8.80;99.90;;;-144.05;73.86;125687.94;5009927;28;20034;-86
2022/11/04 06:52:16;;;;;;;5.45;1.52;;;8.80;99.90;;;-144.05;73.84;125687.94;5009612;28;20034;-85
2022/11/04 06:54:42;;;;;;;8.43;1.85;;;8.80;99.90;;;-144.05;73.84;125687.94;4992769;28;20402;-85
2022/11/04 06:57:11;;;;;;;10.43;2.00;;;8.90;99.90;;;-144.05;73.61;125687.94;5010236;28;20026;-85
2022/11/04 06:59:37;;;;;;;8.35;2.00;;;8.90;99.90;;;-144.05;73.39;125687.94;4992996;28;20449;-84
2022/11/04 07:02:02;;;;;;;9.95;1.70;;;8.90;99.90;;;-144.05;73.17;125687.94;4992797;28;20066;-84
2022/11/04 07:04:28;;;;;;;8.13;1.83;;;8.90;99.90;;;-144.05;73.35;125687.94;4993335;28;20026;-84
2022/11/04 07:06:54;;;;;;;9.80;1.85;;;8.90;99.90;;;-144.05;73.14;125687.94;5010872;28;20031;-82
2022/11/04 07:09:20;;;;;;;5.72;1.65;;;8.90;99.90;;;-144.05;73.28;125687.94;5013021;28;20053;-83
2022/11/04 07:11:46;;;;;;;10.60;2.38;;;8.90;99.90;;;-144.05;73.60;125687.94;5000718;28;20049;-80
2022/11/04 07:14:13;;;;;;;6.95;2.00;;;8.90;99.90;;;-144.05;73.28;125687.94;5017649;28;20042;-81
2022/11/04 07:16:39;;;;;;;5.55;1.55;;;8.90;99.90;;;-144.05;73.27;125687.94;5017691;28;20090;-82
2022/11/04 07:19:05;;;;;;;7.03;2.33;;;9.00;99.90;;;-144.05;73.16;125687.94;5000635;28;20053;-84
2022/11/04 07:21:31;;;;;;;5.53;2.13;;;9.00;99.90;;;-144.05;72.74;125687.94;5014646;28;20082;-85
2022/11/04 07:23:57;;;;;;;7.55;2.13;;;9.00;99.90;;;-144.05;72.71;125687.94;5007255;28;20037;-84
2022/11/04 07:26:23;;;;;;;6.40;2.33;;;9.10;99.90;;;-144.05;72.29;125687.94;4988162;28;20038;-83
2022/11/04 07:28:49;;;;;;;10.50;2.67;;;9.10;99.90;;;-144.05;72.44;125687.94;4988797;28;20356;-84
2022/11/04 07:31:16;;;;;;;9.43;2.00;;;9.20;99.90;;;-144.05;72.31;125687.94;5007029;28;20061;-84
2022/11/04 07:33:42;;;;;;;14.90;2.70;;;9.20;99.90;;;-144.05;72.02;125687.94;4988571;28;20030;-83
2022/11/04 07:36:12;;;;;;;8.10;2.40;;;9.30;99.90;;;-144.05;72.00;125687.94;5006307;28;20034;-83
2022/11/04 07:38:38;;;;;;;11.02;4.00;;;9.30;99.90;;;-144.05;71.92;125687.94;5006160;28;20066;-84
2022/11/04 07:41:04;;;;;;;11.02;3.58;;;9.40;99.90;;;-144.05;71.04;125687.94;4988632;28;20026;-83
2022/11/04 07:43:30;;;;;;;10.23;3.05;;;9.40;99.90;;;-144.05;71.03;125687.94;4988950;28;20023;-84
2022/11/04 07:46:07;;;;;;;8.88;2.72;;;9.50;99.90;;;-144.05;71.44;125687.94;5005038;28;20023;-82
2022/11/04 07:48:35;;;;;;;9.30;2.17;;;9.50;99.90;;;-144.05;70.96;125687.94;5005145;28;20034;-86
2022/11/04 07:51:05;;;;;;;7.88;2.63;;;9.50;99.90;;;-144.05;69.92;125687.94;5005903;28;20037;-84
2022/11/04 07:53:31;;;;;;;8.32;2.33;;;9.70;99.90;;;-144.05;69.27;125687.94;5010433;28;20046;-81
2022/11/04 07:55:57;;;;;;;8.57;1.77;;;9.90;99.90;;;-144.05;68.51;125687.94;5010569;28;20045;-83
2022/11/04 07:58:24;;;;;;;4.10;2.00;;;9.90;99.90;;;-144.05;68.93;125687.94;4991509;28;20077;-84
2022/11/04 08:01:02;;;;;;;10.98;2.40;;;10.00;99.90;;;-144.05;67.96;125687.94;5007909;28;20026;-83
2022/11/04 08:03:27;;;;;;;8.13;2.53;;;10.10;99.90;;;-144.05;67.85;125687.94;5006637;28;20026;-84
2022/11/04 08:06:00;;;;;;;8.75;2.45;;;10.10;99.90;;;-144.05;67.74;125687.94;5006640;28;20040;-84
2022/11/04 08:08:27;;;;;;;11.13;2.20;;;10.20;99.90;;;-144.05;67.90;125687.94;5006041;28;20465;-84
2022/11/04 08:11:14;;;;;;;7.43;2.20;;;10.20;99.90;;;-144.05;67.97;125687.94;5005041;28;20100;-86
2022/11/04 08:13:41;;;;;;;8.70;2.58;;;10.20;99.90;;;-144.05;67.96;125687.94;4987110;28;20046;-83
2022/11/04 08:16:15;;;;;;;6.85;2.05;;;10.20;99.90;;;-144.05;67.54;125687.94;5004607;28;20030;-82
2022/11/04 08:18:43;;;;;;;10.20;2.22;;;10.20;99.90;;;-144.05;67.54;125687.94;4988354;28;20037;-84
2022/11/04 08:21:10;;;;;;;8.10;2.50;;;10.30;99.90;;;-144.05;66.59;125687.94;4986620;28;20030;-83
2022/11/04 08:23:36;;;;;;;5.75;1.52;;;10.50;99.90;;;-144.05;66.38;125687.94;5002876;28;20037;-81
2022/11/04 08:26:10;;;;;;;8.98;1.83;;;10.60;99.90;;;-144.05;65.63;125687.94;4987695;28;20030;-84
2022/11/04 08:28:37;;;;;;;8.30;2.47;;;10.70;99.90;;;-144.05;66.39;125687.94;4986174;28;20045;-83
2022/11/04 08:31:27;;;;;;;7.43;1.52;;;10.80;99.90;;;-144.05;66.41;125687.94;5005686;28;20034;-84
2022/11/04 08:33:56;;;;;;;7.22;1.80;;;10.80;99.90;;;-144.05;65.54;125687.94;5004432;28;20110;-83
2022/11/04 08:36:35;;;;;;;7.03;1.95;;;11.00;99.90;;;-144.05;64.39;125687.94;4988405;28;20034;-84
2022/11/04 08:39:04;;;;;;;8.27;2.03;;;11.20;99.90;;;-144.05;63.52;125687.94;5004721;28;20442;-83
2022/11/04 08:41:33;;;;;;;10.63;2.22;;;11.50;99.90;;;-144.05;62.70;125687.94;4986726;28;20026;-84
2022/11/04 08:43:59;;;;;;;9.70;1.67;;;11.70;99.90;;;-144.05;61.92;125687.94;4986735;28;20027;-82
2022/11/04 08:46:36;;;;;;;10.07;2.13;;;12.10;99.90;;;-144.05;60.18;125687.94;4987310;28;20084;-83
2022/11/04 08:49:04;;;;;;;5.70;1.50;;;12.40;99.90;;;-144.05;59.16;125687.94;5004105;28;20022;-84
2022/11/04 08:51:34;;;;;;;6.25;1.67;;;12.40;99.90;;;-144.05;58.97;125687.94;5004635;28;20026;-85
2022/11/04 08:54:00;;;;;;;6.28;1.48;;;12.20;99.90;;;-144.05;60.47;125687.94;4986929;28;20109;-86
2022/11/04 08:56:33;;;;;;;5.97;1.90;;;12.30;99.90;;;-144.05;59.37;125687.94;5005092;28;20046;-83
2022/11/04 08:59:01;;;;;;;7.57;2.00;;;12.50;99.90;;;-144.05;58.79;125687.94;4987343;28;20036;-85
2022/11/04 09:01:30;;;;;;;9.57;2.22;;;12.80;99.90;;;-144.05;58.60;125687.94;5005594;28;20037;-83
2022/11/04 09:03:56;;;;;;;6.93;1.58;;;13.00;99.90;;;-144.05;57.40;125687.94;5005505;28;20304;-86
2022/11/04 09:06:32;;;;;;;6.00;2.03;;;13.20;99.90;;;-144.05;57.22;125687.94;5005626;28;20478;-81
2022/11/04 09:09:02;;;;;;;13.73;1.42;;;13.10;99.90;;;-144.05;57.07;125687.94;5002876;28;20034;-85
2022/11/04 09:11:32;;;;;;;7.03;1.30;;;13.20;99.90;;;-144.05;56.30;125687.94;5003699;28;20042;-85
2022/11/04 09:14:00;;;;;;;4.68;1.40;;;13.40;99.90;;;-144.05;54.94;125687.94;4987484;28;20094;-85
2022/11/04 09:16:30;;;;;;;11.45;1.63;;;13.70;99.90;;;-144.05;54.91;125687.94;4986595;28;20031;-83
2022/11/04 09:18:57;;;;;;;9.38;1.60;;;13.90;99.90;;;-144.05;54.46;125687.94;4985932;28;20612;-84
2022/11/04 09:21:25;;;;;;;2.70;1.00;;;14.20;99.90;;;-144.05;53.13;125687.94;5004502;28;20089;-83
2022/11/04 09:23:52;;;;;;;8.60;1.95;;;14.60;99.90;;;-144.05;52.02;125687.94;4986694;28;20045;-82
2022/11/04 09:26:21;;;;;;;6.85;1.73;;;14.90;99.90;;;-144.05;51.42;125687.94;5005528;28;20427;-85
2022/11/04 09:28:47;;;;;;;4.60;1.48;;;15.30;99.90;;;-144.05;49.85;125687.94;4985618;28;20034;-84
2022/11/04 09:31:18;;;;;;;7.18;1.20;;;15.10;99.90;;;-144.05;52.64;125687.94;5000461;28;20101;-83
2022/11/04 09:33:44;;;;;;;7.10;1.27;;;14.40;99.90;;;-144.05;55.34;125687.94;4999302;28;20050;-83
2022/11/04 09:36:12;;;;;;;9.10;1.70;;;13.80;99.90;;;-144.05;56.01;125687.94;4999084;28;20133;-81
2022/11/04 09:38:41;;;;;;;6.05;1.35;;;13.40;99.90;;;-144.05;56.35;125687.94;4979447;28;20053;-82
2022/11/04 09:42:20;;;;;;;5.25;1.50;;;13.20;99.90;;;-144.05;56.89;125687.94;4980600;28;20375;-82
2022/11/04 09:45:10;;;;;;;;;;;13.10;99.90;;;-144.05;57.13;125687.94;4993687;28;20034;-83
2022/11/04 09:47:42;;;;;;;4.55;1.27;;;13.40;99.90;;;-144.05;56.15;125687.94;4981201;28;19910;-81
2022/11/04 09:50:24;;;;;;;3.70;1.02;;;13.70;99.90;;;-144.05;55.33;125687.94;4999273;28;20034;-82
2022/11/04 09:53:09;;;;;;;6.65;1.83;;;14.00;99.90;;;-144.05;54.70;125687.94;4980583;28;20038;-82
2022/11/04 09:56:03;;;;;;;5.45;1.55;;;14.10;99.90;;;-144.05;55.18;125687.94;5001126;28;20135;-83
2022/11/04 09:58:37;;;;;;;3.60;1.33;;;14.00;99.90;;;-144.05;55.19;125687.94;4988121;28;20076;-82
2022/11/04 10:01:17;;;;;;;8.68;1.90;;;14.10;99.90;;;-144.05;54.88;125687.94;5007992;28;20054;-81
2022/11/04 10:04:10;;;;;;;6.28;1.20;;;14.00;99.90;;;-144.05;54.48;125687.94;4990143;28;20030;-82
2022/11/04 10:07:06;;;;;;;13.52;1.92;;;14.00;99.90;;;-144.05;54.66;125687.94;5006289;28;20132;-84
2022/11/04 10:10:01;;;;;;;5.93;1.70;;;14.20;99.90;;;-144.05;52.87;125687.94;4986979;28;20501;-84
2022/11/04 10:13:01;;;;;;;7.65;1.52;;;14.60;99.90;;;-144.05;51.63;125687.94;5003980;28;20037;-81
2022/11/04 10:16:08;;;;;;;6.82;1.42;;;15.20;99.90;;;-144.05;49.73;125687.94;4986170;28;20050;-82
2022/11/04 10:18:51;;;;;;;8.13;1.83;;;15.60;99.90;;;-144.05;49.71;125687.94;5004667;28;20038;-81
2022/11/04 10:21:48;;;;;;;5.57;1.73;;;15.70;99.90;;;-144.05;50.04;125687.94;4986435;28;20042;-83
2022/11/04 10:24:22;;;;;;;9.40;2.05;;;15.50;99.90;;;-144.05;51.56;125687.94;4985915;28;20585;-83
2022/11/04 10:27:03;;;;;;;2.72;1.10;;;15.50;99.90;;;-144.05;49.95;125687.94;5004493;28;20042;-83
2022/11/04 10:29:44;;;;;;;7.53;1.25;;;15.90;99.90;;;-144.05;48.05;125687.94;5004334;28;20026;-83
2022/11/04 10:33:10;;;;;;;4.45;1.58;;;16.20;99.90;;;-144.05;47.98;125687.94;5005114;28;20029;-83
2022/11/04 10:35:58;;;;;;;3.70;1.48;;;16.20;99.90;;;-144.05;46.69;125687.94;4983579;28;20047;-84
2022/11/04 10:38:42;;;;;;;6.72;1.50;;;16.40;99.90;;;-144.05;47.81;125687.94;5014868;28;20021;-82
2022/11/04 10:41:39;;;;;;;6.28;1.23;;;16.40;99.90;;;-144.05;46.70;125687.94;5000206;28;20026;-85
2022/11/04 10:44:37;;;;;;;5.45;1.23;;;16.10;99.90;;;-144.05;48.18;125687.94;4998243;28;20058;-83
2022/11/04 10:47:50;;;;;;;3.20;1.02;;;15.70;99.90;;;-144.05;48.85;125687.94;4995064;28;20041;-85
2022/11/04 10:50:43;;;;;;;4.10;1.35;;;15.60;99.90;;;-144.05;47.90;125687.94;4991862;28;20031;-84
2022/11/04 10:53:26;;;;;;;5.32;1.70;;;15.50;99.90;;;-144.05;47.15;125687.94;5008548;28;20045;-84
2022/11/04 10:56:34;;;;;;;7.85;1.95;;;15.70;99.90;;;-144.05;47.23;125687.94;4989843;28;20041;-85
2022/11/04 10:59:23;;;;;;;5.88;1.75;;;15.60;99.90;;;-144.05;47.72;125687.94;5007464;28;20034;-86
2022/11/04 11:01:55;;;;;;;4.05;1.08;;;15.40;99.90;;;-144.05;49.67;125687.94;4990039;28;20037;-85
2022/11/04 11:04:34;;;;;;;4.50;1.45;;;15.00;99.90;;;-144.05;50.00;125687.94;5007118;28;20037;-86
2022/11/04 11:07:05;;;;;;;5.07;1.50;;;14.80;99.90;;;-144.05;50.22;125687.94;5008527;28;20408;-85